sensor_id;sensor_type;location;lat;lon;timestamp;noise_LAeq;noise_LA_min;noise_LA_max;noise_LA01;noise_LA95
66399;Laerm;54877;51.504;3.894;2023-03-01T00:01:30;33.12;31.20;37.68;;
66399;Laerm;54877;51.504;3.894;2023-03-01T00:03:57;33.08;31.28;35.58;;
66399;Laerm;54877;51.504;3.894;2023-03-01T00:06:22;33.13;31.53;34.64;;
66399;Laerm;54877;51.504;3.894;2023-03-01T00:08:48;33.23;31.57;36.91;;
66399;Laerm;54877;51.504;3.894;2023-03-01T00:11:21;33.20;31.67;34.93;;
66399;Laerm;54877;51.504;3.894;2023-03-01T00:13:48;33.50;31.85;37.53;;
66399;Laerm;54877;51.504;3.894;2023-03-01T00:16:19;33.74;32.06;43.11;;
66399;Laerm;54877;51.504;3.894;2023-03-01T00:18:45;39.71;31.86;54.89;;
66399;Laerm;54877;51.504;3.894;2023-03-01T00:21:11;33.56;31.92;39.03;;
66399;Laerm;54877;51.504;3.894;2023-03-01T00:23:37;33.41;31.78;35.00;;
66399;Laerm;54877;51.504;3.894;2023-03-01T00:26:06;33.37;31.78;34.86;;
66399;Laerm;54877;51.504;3.894;2023-03-01T00:28:32;33.74;31.99;37.60;;
66399;Laerm;54877;51.504;3.894;2023-03-01T00:31:03;34.26;31.96;41.87;;
66399;Laerm;54877;51.504;3.894;2023-03-01T00:33:29;33.76;31.99;38.34;;
66399;Laerm;54877;51.504;3.894;2023-03-01T00:35:54;55.41;32.05;76.27;;
66399;Laerm;54877;51.504;3.894;2023-03-01T00:38:19;33.61;32.14;35.03;;
66399;Laerm;54877;51.504;3.894;2023-03-01T00:40:45;33.65;31.93;35.13;;
66399;Laerm;54877;51.504;3.894;2023-03-01T00:43:10;33.61;32.00;37.11;;
66399;Laerm;54877;51.504;3.894;2023-03-01T00:45:35;33.62;32.16;36.33;;
66399;Laerm;54877;51.504;3.894;2023-03-01T00:48:01;33.67;32.01;35.09;;
66399;Laerm;54877;51.504;3.894;2023-03-01T00:50:26;33.65;32.06;34.96;;
66399;Laerm;54877;51.504;3.894;2023-03-01T00:52:55;33.77;31.89;35.53;;
66399;Laerm;54877;51.504;3.894;2023-03-01T00:55:20;33.94;32.39;36.29;;
66399;Laerm;54877;51.504;3.894;2023-03-01T00:57:46;33.82;32.03;36.46;;
66399;Laerm;54877;51.504;3.894;2023-03-01T01:00:11;33.86;32.19;36.32;;
66399;Laerm;54877;51.504;3.894;2023-03-01T01:02:37;33.84;32.45;35.50;;
66399;Laerm;54877;51.504;3.894;2023-03-01T01:05:03;33.88;32.27;36.15;;
66399;Laerm;54877;51.504;3.894;2023-03-01T01:07:29;33.94;32.31;37.96;;
66399;Laerm;54877;51.504;3.894;2023-03-01T01:09:54;33.98;32.51;36.03;;
66399;Laerm;54877;51.504;3.894;2023-03-01T01:12:20;34.05;32.25;36.55;;
66399;Laerm;54877;51.504;3.894;2023-03-01T01:14:45;34.42;32.55;41.65;;
66399;Laerm;54877;51.504;3.894;2023-03-01T01:17:11;34.14;32.48;39.71;;
66399;Laerm;54877;51.504;3.894;2023-03-01T01:19:36;34.15;32.47;38.24;;
66399;Laerm;54877;51.504;3.894;2023-03-01T01:22:02;34.17;32.35;38.40;;
66399;Laerm;54877;51.504;3.894;2023-03-01T01:24:28;34.12;32.65;35.67;;
66399;Laerm;54877;51.504;3.894;2023-03-01T01:26:53;34.24;32.71;42.97;;
66399;Laerm;54877;51.504;3.894;2023-03-01T01:29:19;34.23;32.53;36.37;;
66399;Laerm;54877;51.504;3.894;2023-03-01T01:31:44;34.18;32.75;38.06;;
66399;Laerm;54877;51.504;3.894;2023-03-01T01:34:16;34.10;32.26;35.77;;
66399;Laerm;54877;51.504;3.894;2023-03-01T01:36:41;34.97;32.70;42.23;;
66399;Laerm;54877;51.504;3.894;2023-03-01T01:39:06;34.21;32.67;36.15;;
66399;Laerm;54877;51.504;3.894;2023-03-01T01:41:32;34.17;32.87;35.97;;
66399;Laerm;54877;51.504;3.894;2023-03-01T01:44:23;34.15;32.62;36.76;;
66399;Laerm;54877;51.504;3.894;2023-03-01T01:46:57;34.33;32.56;39.74;;
66399;Laerm;54877;51.504;3.894;2023-03-01T01:49:43;34.39;32.95;41.24;;
66399;Laerm;54877;51.504;3.894;2023-03-01T01:52:14;34.50;32.79;37.04;;
66399;Laerm;54877;51.504;3.894;2023-03-01T01:54:46;34.29;32.81;35.77;;
66399;Laerm;54877;51.504;3.894;2023-03-01T01:57:17;34.30;32.92;35.99;;
66399;Laerm;54877;51.504;3.894;2023-03-01T01:59:50;34.32;32.69;35.69;;
66399;Laerm;54877;51.504;3.894;2023-03-01T02:02:16;34.54;32.93;37.97;;
66399;Laerm;54877;51.504;3.894;2023-03-01T02:04:42;34.70;32.86;44.42;;
66399;Laerm;54877;51.504;3.894;2023-03-01T02:07:16;34.34;32.83;35.80;;
66399;Laerm;54877;51.504;3.894;2023-03-01T02:09:49;34.33;33.01;35.95;;
66399;Laerm;54877;51.504;3.894;2023-03-01T02:12:17;34.38;32.67;36.80;;
66399;Laerm;54877;51.504;3.894;2023-03-01T02:14:43;34.43;33.03;36.19;;
66399;Laerm;54877;51.504;3.894;2023-03-01T02:17:11;34.43;32.83;35.95;;
66399;Laerm;54877;51.504;3.894;2023-03-01T02:22:40;34.38;32.96;35.71;;
66399;Laerm;54877;51.504;3.894;2023-03-01T02:30:46;34.51;33.05;39.76;;
66399;Laerm;54877;51.504;3.894;2023-03-01T02:33:34;34.45;33.01;36.40;;
66399;Laerm;54877;51.504;3.894;2023-03-01T02:36:05;34.48;33.08;36.46;;
66399;Laerm;54877;51.504;3.894;2023-03-01T02:38:32;34.50;33.22;35.94;;
66399;Laerm;54877;51.504;3.894;2023-03-01T02:40:58;34.56;33.10;37.89;;
66399;Laerm;54877;51.504;3.894;2023-03-01T02:43:28;34.52;32.90;35.78;;
66399;Laerm;54877;51.504;3.894;2023-03-01T02:45:57;34.54;33.07;35.99;;
66399;Laerm;54877;51.504;3.894;2023-03-01T02:48:23;34.60;32.98;37.24;;
66399;Laerm;54877;51.504;3.894;2023-03-01T02:51:12;34.54;33.14;36.40;;
66399;Laerm;54877;51.504;3.894;2023-03-01T02:56:17;34.57;32.96;36.22;;
66399;Laerm;54877;51.504;3.894;2023-03-01T02:58:43;34.64;33.31;36.60;;
66399;Laerm;54877;51.504;3.894;2023-03-01T03:01:17;34.69;33.14;37.18;;
66399;Laerm;54877;51.504;3.894;2023-03-01T03:03:42;34.69;33.21;37.60;;
66399;Laerm;54877;51.504;3.894;2023-03-01T03:06:08;34.80;33.34;36.35;;
66399;Laerm;54877;51.504;3.894;2023-03-01T03:08:34;34.64;33.16;37.39;;
66399;Laerm;54877;51.504;3.894;2023-03-01T03:10:59;40.82;33.32;62.64;;
66399;Laerm;54877;51.504;3.894;2023-03-01T03:13:24;35.06;33.36;39.67;;
66399;Laerm;54877;51.504;3.894;2023-03-01T03:15:56;34.72;33.24;36.09;;
66399;Laerm;54877;51.504;3.894;2023-03-01T03:18:23;34.67;33.23;36.55;;
66399;Laerm;54877;51.504;3.894;2023-03-01T03:20:52;34.68;33.11;38.86;;
66399;Laerm;54877;51.504;3.894;2023-03-01T03:23:21;34.66;33.36;36.60;;
66399;Laerm;54877;51.504;3.894;2023-03-01T03:25:50;34.67;33.07;37.75;;
66399;Laerm;54877;51.504;3.894;2023-03-01T03:28:16;34.65;33.17;36.66;;
66399;Laerm;54877;51.504;3.894;2023-03-01T03:30:41;34.64;32.72;36.63;;
66399;Laerm;54877;51.504;3.894;2023-03-01T03:33:08;34.92;33.34;38.46;;
66399;Laerm;54877;51.504;3.894;2023-03-01T03:35:45;34.79;33.42;40.41;;
66399;Laerm;54877;51.504;3.894;2023-03-01T03:38:13;34.82;33.25;37.84;;
66399;Laerm;54877;51.504;3.894;2023-03-01T03:40:52;35.11;33.27;38.27;;
66399;Laerm;54877;51.504;3.894;2023-03-01T03:43:26;34.66;32.94;36.51;;
66399;Laerm;54877;51.504;3.894;2023-03-01T03:45:52;34.73;33.22;36.17;;
66399;Laerm;54877;51.504;3.894;2023-03-01T03:48:17;34.89;32.80;37.09;;
66399;Laerm;54877;51.504;3.894;2023-03-01T03:50:48;34.69;33.29;36.35;;
66399;Laerm;54877;51.504;3.894;2023-03-01T03:53:14;35.00;33.27;37.06;;
66399;Laerm;54877;51.504;3.894;2023-03-01T03:55:40;34.81;33.34;36.50;;
66399;Laerm;54877;51.504;3.894;2023-03-01T03:58:07;34.68;33.09;36.41;;
66399;Laerm;54877;51.504;3.894;2023-03-01T04:00:37;35.69;33.05;54.25;;
66399;Laerm;54877;51.504;3.894;2023-03-01T04:03:03;36.27;32.95;55.24;;
66399;Laerm;54877;51.504;3.894;2023-03-01T04:05:29;34.74;33.06;36.46;;
66399;Laerm;54877;51.504;3.894;2023-03-01T04:07:55;36.04;33.34;44.55;;
66399;Laerm;54877;51.504;3.894;2023-03-01T04:10:28;34.75;33.25;36.44;;
66399;Laerm;54877;51.504;3.894;2023-03-01T04:12:53;34.77;33.16;36.24;;
66399;Laerm;54877;51.504;3.894;2023-03-01T04:15:22;36.99;33.27;53.90;;
66399;Laerm;54877;51.504;3.894;2023-03-01T04:17:50;35.04;33.38;37.94;;
66399;Laerm;54877;51.504;3.894;2023-03-01T04:20:22;34.88;33.22;38.50;;
66399;Laerm;54877;51.504;3.894;2023-03-01T04:25:23;34.84;33.09;36.78;;
66399;Laerm;54877;51.504;3.894;2023-03-01T04:27:48;34.92;33.44;37.70;;
66399;Laerm;54877;51.504;3.894;2023-03-01T04:30:14;35.06;33.36;41.47;;
66399;Laerm;54877;51.504;3.894;2023-03-01T04:32:39;34.75;33.29;36.56;;
66399;Laerm;54877;51.504;3.894;2023-03-01T04:35:05;34.93;33.39;38.06;;
66399;Laerm;54877;51.504;3.894;2023-03-01T04:37:31;35.17;33.72;39.14;;
66399;Laerm;54877;51.504;3.894;2023-03-01T04:39:56;35.14;33.13;36.93;;
66399;Laerm;54877;51.504;3.894;2023-03-01T04:42:21;35.18;33.61;37.25;;
66399;Laerm;54877;51.504;3.894;2023-03-01T04:44:47;35.12;33.50;37.73;;
66399;Laerm;54877;51.504;3.894;2023-03-01T04:47:12;35.44;33.50;38.91;;
66399;Laerm;54877;51.504;3.894;2023-03-01T04:49:38;35.50;33.66;40.89;;
66399;Laerm;54877;51.504;3.894;2023-03-01T04:52:03;35.75;33.22;59.13;;
66399;Laerm;54877;51.504;3.894;2023-03-01T04:54:30;40.77;34.17;60.07;;
66399;Laerm;54877;51.504;3.894;2023-03-01T04:56:56;40.45;33.21;55.27;;
66399;Laerm;54877;51.504;3.894;2023-03-01T04:59:22;34.98;33.28;37.26;;
66399;Laerm;54877;51.504;3.894;2023-03-01T05:01:49;35.40;33.61;38.42;;
66399;Laerm;54877;51.504;3.894;2023-03-01T05:04:14;35.46;33.52;39.73;;
66399;Laerm;54877;51.504;3.894;2023-03-01T05:06:39;35.08;33.40;38.12;;
66399;Laerm;54877;51.504;3.894;2023-03-01T05:09:05;35.68;33.51;41.94;;
66399;Laerm;54877;51.504;3.894;2023-03-01T05:11:30;35.53;33.19;45.02;;
66399;Laerm;54877;51.504;3.894;2023-03-01T05:14:04;35.44;33.13;50.20;;
66399;Laerm;54877;51.504;3.894;2023-03-01T05:16:30;40.67;33.68;53.77;;
66399;Laerm;54877;51.504;3.894;2023-03-01T05:18:56;36.44;33.54;44.33;;
66399;Laerm;54877;51.504;3.894;2023-03-01T05:21:22;35.81;33.28;42.09;;
66399;Laerm;54877;51.504;3.894;2023-03-01T05:23:47;35.96;33.91;45.04;;
66399;Laerm;54877;51.504;3.894;2023-03-01T05:26:14;59.12;34.09;79.37;;
66399;Laerm;54877;51.504;3.894;2023-03-01T05:28:39;38.06;34.17;52.05;;
66399;Laerm;54877;51.504;3.894;2023-03-01T05:31:05;36.62;34.16;53.73;;
66399;Laerm;54877;51.504;3.894;2023-03-01T05:33:39;36.40;34.06;47.60;;
66399;Laerm;54877;51.504;3.894;2023-03-01T05:36:06;36.47;34.42;42.35;;
66399;Laerm;54877;51.504;3.894;2023-03-01T05:38:33;36.29;34.24;41.30;;
66399;Laerm;54877;51.504;3.894;2023-03-01T05:40:59;37.16;34.51;41.27;;
66399;Laerm;54877;51.504;3.894;2023-03-01T05:43:24;37.42;34.58;53.79;;
66399;Laerm;54877;51.504;3.894;2023-03-01T05:45:49;50.97;34.46;69.54;;
66399;Laerm;54877;51.504;3.894;2023-03-01T05:48:15;37.55;35.04;43.64;;
66399;Laerm;54877;51.504;3.894;2023-03-01T05:50:43;54.04;35.47;73.11;;
66399;Laerm;54877;51.504;3.894;2023-03-01T05:53:10;42.86;34.89;53.69;;
66399;Laerm;54877;51.504;3.894;2023-03-01T05:55:36;39.77;35.24;54.04;;
66399;Laerm;54877;51.504;3.894;2023-03-01T05:58:06;47.00;34.72;76.83;;
66399;Laerm;54877;51.504;3.894;2023-03-01T06:00:34;37.40;34.98;44.20;;
66399;Laerm;54877;51.504;3.894;2023-03-01T06:03:00;41.34;35.57;61.63;;
66399;Laerm;54877;51.504;3.894;2023-03-01T06:05:26;40.97;34.74;63.16;;
66399;Laerm;54877;51.504;3.894;2023-03-01T06:07:52;40.95;34.53;59.37;;
66399;Laerm;54877;51.504;3.894;2023-03-01T06:10:19;38.71;35.20;48.12;;
66399;Laerm;54877;51.504;3.894;2023-03-01T06:12:46;44.69;34.83;71.43;;
66399;Laerm;54877;51.504;3.894;2023-03-01T06:15:14;59.52;35.45;79.29;;
66399;Laerm;54877;51.504;3.894;2023-03-01T06:17:41;58.41;34.66;76.79;;
66399;Laerm;54877;51.504;3.894;2023-03-01T06:20:21;39.10;34.62;55.94;;
66399;Laerm;54877;51.504;3.894;2023-03-01T06:22:47;58.52;34.25;77.58;;
66399;Laerm;54877;51.504;3.894;2023-03-01T06:25:17;44.02;35.48;59.70;;
66399;Laerm;54877;51.504;3.894;2023-03-01T06:27:43;46.05;36.76;65.89;;
66399;Laerm;54877;51.504;3.894;2023-03-01T06:30:10;59.07;35.99;78.08;;
66399;Laerm;54877;51.504;3.894;2023-03-01T06:32:37;43.53;35.67;67.64;;
66399;Laerm;54877;51.504;3.894;2023-03-01T06:35:04;39.28;35.04;46.80;;
66399;Laerm;54877;51.504;3.894;2023-03-01T06:37:29;62.87;38.35;79.61;;
66399;Laerm;54877;51.504;3.894;2023-03-01T06:39:55;58.82;35.37;76.28;;
66399;Laerm;54877;51.504;3.894;2023-03-01T06:42:20;59.22;34.59;78.84;;
66399;Laerm;54877;51.504;3.894;2023-03-01T06:44:45;52.65;36.47;71.18;;
66399;Laerm;54877;51.504;3.894;2023-03-01T06:47:11;53.91;37.23;73.45;;
66399;Laerm;54877;51.504;3.894;2023-03-01T06:49:36;50.48;36.15;68.15;;
66399;Laerm;54877;51.504;3.894;2023-03-01T06:52:02;52.90;35.76;73.43;;
66399;Laerm;54877;51.504;3.894;2023-03-01T06:54:27;56.34;36.20;76.36;;
66399;Laerm;54877;51.504;3.894;2023-03-01T06:56:53;59.00;36.46;76.24;;
66399;Laerm;54877;51.504;3.894;2023-03-01T06:59:18;47.03;37.18;65.69;;
66399;Laerm;54877;51.504;3.894;2023-03-01T07:01:43;47.29;36.76;62.55;;
66399;Laerm;54877;51.504;3.894;2023-03-01T07:04:09;56.24;34.45;75.24;;
66399;Laerm;54877;51.504;3.894;2023-03-01T07:06:35;41.58;34.47;56.64;;
66399;Laerm;54877;51.504;3.894;2023-03-01T07:09:00;45.19;35.54;62.89;;
66399;Laerm;54877;51.504;3.894;2023-03-01T07:11:26;43.15;36.58;52.47;;
66399;Laerm;54877;51.504;3.894;2023-03-01T07:13:51;59.94;36.47;78.38;;
66399;Laerm;54877;51.504;3.894;2023-03-01T07:16:16;45.65;37.94;65.49;;
66399;Laerm;54877;51.504;3.894;2023-03-01T07:18:42;61.86;40.03;78.19;;
66399;Laerm;54877;51.504;3.894;2023-03-01T07:21:08;49.96;38.83;72.59;;
66399;Laerm;54877;51.504;3.894;2023-03-01T07:23:34;55.83;39.00;73.69;;
66399;Laerm;54877;51.504;3.894;2023-03-01T07:26:00;54.24;38.43;71.74;;
66399;Laerm;54877;51.504;3.894;2023-03-01T07:28:26;60.40;38.36;75.51;;
66399;Laerm;54877;51.504;3.894;2023-03-01T07:30:51;52.14;38.15;73.64;;
66399;Laerm;54877;51.504;3.894;2023-03-01T07:33:17;57.01;36.83;76.95;;
66399;Laerm;54877;51.504;3.894;2023-03-01T07:35:42;59.41;36.46;78.35;;
66399;Laerm;54877;51.504;3.894;2023-03-01T07:38:07;58.26;36.25;76.05;;
66399;Laerm;54877;51.504;3.894;2023-03-01T07:40:33;58.44;36.74;78.02;;
66399;Laerm;54877;51.504;3.894;2023-03-01T07:42:59;44.53;36.08;61.47;;
66399;Laerm;54877;51.504;3.894;2023-03-01T07:45:25;42.68;37.96;61.02;;
66399;Laerm;54877;51.504;3.894;2023-03-01T07:47:51;42.18;38.34;57.99;;
66399;Laerm;54877;51.504;3.894;2023-03-01T07:50:17;61.39;38.59;79.04;;
66399;Laerm;54877;51.504;3.894;2023-03-01T07:52:45;54.25;35.77;71.16;;
66399;Laerm;54877;51.504;3.894;2023-03-01T07:55:10;54.81;35.00;74.26;;
66399;Laerm;54877;51.504;3.894;2023-03-01T07:57:36;59.69;35.92;74.57;;
66399;Laerm;54877;51.504;3.894;2023-03-01T08:00:01;51.42;34.27;69.42;;
66399;Laerm;54877;51.504;3.894;2023-03-01T08:02:26;61.50;35.52;86.07;;
66399;Laerm;54877;51.504;3.894;2023-03-01T08:04:51;52.51;34.83;70.92;;
66399;Laerm;54877;51.504;3.894;2023-03-01T08:07:17;40.85;34.43;59.62;;
66399;Laerm;54877;51.504;3.894;2023-03-01T08:09:42;54.47;33.51;73.79;;
66399;Laerm;54877;51.504;3.894;2023-03-01T08:12:07;39.90;32.57;58.96;;
66399;Laerm;54877;51.504;3.894;2023-03-01T08:14:33;56.65;33.54;73.89;;
66399;Laerm;54877;51.504;3.894;2023-03-01T08:16:58;49.00;34.09;66.74;;
66399;Laerm;54877;51.504;3.894;2023-03-01T08:19:23;44.27;34.51;70.42;;
66399;Laerm;54877;51.504;3.894;2023-03-01T08:21:49;43.81;33.10;65.09;;
66399;Laerm;54877;51.504;3.894;2023-03-01T08:24:15;40.60;32.44;58.36;;
66399;Laerm;54877;51.504;3.894;2023-03-01T08:26:40;51.51;33.15;68.64;;
66399;Laerm;54877;51.504;3.894;2023-03-01T08:29:05;44.30;34.06;62.12;;
66399;Laerm;54877;51.504;3.894;2023-03-01T08:31:34;39.70;33.69;56.17;;
66399;Laerm;54877;51.504;3.894;2023-03-01T08:34:02;41.08;33.40;64.83;;
66399;Laerm;54877;51.504;3.894;2023-03-01T08:36:30;40.19;33.24;58.58;;
66399;Laerm;54877;51.504;3.894;2023-03-01T08:38:56;50.82;33.96;68.44;;
66399;Laerm;54877;51.504;3.894;2023-03-01T08:41:22;41.19;33.18;63.41;;
66399;Laerm;54877;51.504;3.894;2023-03-01T08:43:48;41.82;33.38;65.76;;
66399;Laerm;54877;51.504;3.894;2023-03-01T08:46:13;44.42;33.49;74.71;;
66399;Laerm;54877;51.504;3.894;2023-03-01T08:48:39;52.62;33.05;70.56;;
66399;Laerm;54877;51.504;3.894;2023-03-01T08:51:19;56.87;35.21;76.95;;
66399;Laerm;54877;51.504;3.894;2023-03-01T08:53:44;56.81;33.47;76.14;;
66399;Laerm;54877;51.504;3.894;2023-03-01T08:56:10;45.92;32.95;76.21;;
66399;Laerm;54877;51.504;3.894;2023-03-01T08:58:36;56.96;33.61;79.03;;
66399;Laerm;54877;51.504;3.894;2023-03-01T09:01:09;54.43;32.70;70.05;;
66399;Laerm;54877;51.504;3.894;2023-03-01T09:03:34;39.69;33.43;62.37;;
66399;Laerm;54877;51.504;3.894;2023-03-01T09:06:01;52.76;34.07;71.77;;
66399;Laerm;54877;51.504;3.894;2023-03-01T09:08:27;53.76;34.88;71.99;;
66399;Laerm;54877;51.504;3.894;2023-03-01T09:10:53;56.59;34.56;74.80;;
66399;Laerm;54877;51.504;3.894;2023-03-01T09:13:18;65.51;33.51;86.92;;
66399;Laerm;54877;51.504;3.894;2023-03-01T09:15:43;48.23;34.77;69.75;;
66399;Laerm;54877;51.504;3.894;2023-03-01T09:18:08;44.09;33.21;65.42;;
66399;Laerm;54877;51.504;3.894;2023-03-01T09:20:34;54.36;34.50;74.68;;
66399;Laerm;54877;51.504;3.894;2023-03-01T09:23:14;54.22;34.83;72.61;;
66399;Laerm;54877;51.504;3.894;2023-03-01T09:25:39;43.99;33.25;62.34;;
66399;Laerm;54877;51.504;3.894;2023-03-01T09:28:05;46.96;35.13;63.38;;
66399;Laerm;54877;51.504;3.894;2023-03-01T09:30:31;47.06;34.39;61.46;;
66399;Laerm;54877;51.504;3.894;2023-03-01T09:32:56;45.44;33.59;60.99;;
66399;Laerm;54877;51.504;3.894;2023-03-01T09:35:22;47.84;33.01;60.42;;
66399;Laerm;54877;51.504;3.894;2023-03-01T09:37:48;46.33;32.54;58.64;;
66399;Laerm;54877;51.504;3.894;2023-03-01T09:40:18;56.11;32.39;78.24;;
66399;Laerm;54877;51.504;3.894;2023-03-01T09:42:53;55.06;34.35;76.29;;
66399;Laerm;54877;51.504;3.894;2023-03-01T09:45:30;56.92;32.52;76.81;;
66399;Laerm;54877;51.504;3.894;2023-03-01T09:47:58;40.74;32.15;57.57;;
66399;Laerm;54877;51.504;3.894;2023-03-01T09:50:28;68.21;34.40;92.72;;
66399;Laerm;54877;51.504;3.894;2023-03-01T09:55:34;57.81;37.15;81.06;;
66399;Laerm;54877;51.504;3.894;2023-03-01T10:01:23;49.43;33.38;65.89;;
66399;Laerm;54877;51.504;3.894;2023-03-01T10:06:50;45.41;32.62;65.51;;
66399;Laerm;54877;51.504;3.894;2023-03-01T10:09:17;47.51;33.00;57.13;;
66399;Laerm;54877;51.504;3.894;2023-03-01T10:11:50;55.40;32.51;75.04;;
66399;Laerm;54877;51.504;3.894;2023-03-01T10:14:30;57.29;32.37;77.43;;
66399;Laerm;54877;51.504;3.894;2023-03-01T10:17:03;43.04;32.08;58.40;;
66399;Laerm;54877;51.504;3.894;2023-03-01T10:22:04;51.62;32.89;69.15;;
66399;Laerm;54877;51.504;3.894;2023-03-01T10:24:35;50.31;33.17;67.82;;
66399;Laerm;54877;51.504;3.894;2023-03-01T10:29:56;41.05;32.14;64.50;;
66399;Laerm;54877;51.504;3.894;2023-03-01T10:32:24;54.32;33.54;73.83;;
66399;Laerm;54877;51.504;3.894;2023-03-01T10:34:50;41.92;33.26;62.45;;
66399;Laerm;54877;51.504;3.894;2023-03-01T10:37:17;43.12;35.26;67.88;;
66399;Laerm;54877;51.504;3.894;2023-03-01T10:40:07;44.42;33.30;66.62;;
66399;Laerm;54877;51.504;3.894;2023-03-01T10:42:46;40.54;32.42;60.98;;
66399;Laerm;54877;51.504;3.894;2023-03-01T10:47:44;61.43;35.99;77.83;;
66399;Laerm;54877;51.504;3.894;2023-03-01T10:50:20;52.01;34.53;69.64;;
66399;Laerm;54877;51.504;3.894;2023-03-01T10:53:01;53.13;34.84;70.68;;
66399;Laerm;54877;51.504;3.894;2023-03-01T10:55:38;47.38;33.16;69.78;;
66399;Laerm;54877;51.504;3.894;2023-03-01T11:00:56;57.57;34.10;82.02;;
66399;Laerm;54877;51.504;3.894;2023-03-01T11:03:32;49.00;33.70;71.83;;
66399;Laerm;54877;51.504;3.894;2023-03-01T11:08:42;56.83;34.15;74.57;;
66399;Laerm;54877;51.504;3.894;2023-03-01T11:14:20;42.08;32.64;65.92;;
66399;Laerm;54877;51.504;3.894;2023-03-01T11:16:48;61.66;33.74;82.47;;
66399;Laerm;54877;51.504;3.894;2023-03-01T11:19:22;43.42;32.69;63.48;;
66399;Laerm;54877;51.504;3.894;2023-03-01T11:22:14;45.75;34.08;69.94;;
66399;Laerm;54877;51.504;3.894;2023-03-01T11:24:52;48.52;33.56;67.83;;
66399;Laerm;54877;51.504;3.894;2023-03-01T11:27:26;53.74;34.64;78.28;;
66399;Laerm;54877;51.504;3.894;2023-03-01T11:29:56;44.87;33.77;63.18;;
66399;Laerm;54877;51.504;3.894;2023-03-01T11:32:25;48.21;34.47;67.96;;
66399;Laerm;54877;51.504;3.894;2023-03-01T11:37:42;48.72;33.77;77.84;;
66399;Laerm;54877;51.504;3.894;2023-03-01T11:40:17;44.52;33.53;63.75;;
66399;Laerm;54877;51.504;3.894;2023-03-01T11:45:46;54.39;33.28;74.20;;
66399;Laerm;54877;51.504;3.894;2023-03-01T11:48:25;50.97;31.45;69.24;;
66399;Laerm;54877;51.504;3.894;2023-03-01T11:50:56;56.46;32.95;75.52;;
66399;Laerm;54877;51.504;3.894;2023-03-01T11:56:32;43.34;31.33;72.35;;
66399;Laerm;54877;51.504;3.894;2023-03-01T11:59:28;57.14;33.70;74.20;;
66399;Laerm;54877;51.504;3.894;2023-03-01T12:05:09;54.11;34.50;75.74;;
66399;Laerm;54877;51.504;3.894;2023-03-01T12:16:07;56.27;34.92;74.50;;
66399;Laerm;54877;51.504;3.894;2023-03-01T12:19:04;56.79;33.69;74.64;;
66399;Laerm;54877;51.504;3.894;2023-03-01T12:24:35;49.62;34.35;66.91;;
66399;Laerm;54877;51.504;3.894;2023-03-01T12:49:05;63.73;33.78;84.08;;
66399;Laerm;54877;51.504;3.894;2023-03-01T12:51:36;52.84;33.01;71.49;;
66399;Laerm;54877;51.504;3.894;2023-03-01T12:54:11;55.87;35.84;74.33;;
66399;Laerm;54877;51.504;3.894;2023-03-01T12:56:39;57.94;35.35;78.65;;
66399;Laerm;54877;51.504;3.894;2023-03-01T13:06:57;46.83;34.13;64.59;;
66399;Laerm;54877;51.504;3.894;2023-03-01T13:09:29;55.84;36.62;71.96;;
66399;Laerm;54877;51.504;3.894;2023-03-01T13:11:57;61.01;34.61;77.42;;
66399;Laerm;54877;51.504;3.894;2023-03-01T13:16:52;58.42;34.47;76.52;;
66399;Laerm;54877;51.504;3.894;2023-03-01T13:19:23;55.76;34.80;73.10;;
66399;Laerm;54877;51.504;3.894;2023-03-01T13:21:52;47.60;33.20;79.07;;
66399;Laerm;54877;51.504;3.894;2023-03-01T13:24:40;43.06;33.81;69.16;;
66399;Laerm;54877;51.504;3.894;2023-03-01T13:32:22;43.28;34.14;67.90;;
66399;Laerm;54877;51.504;3.894;2023-03-01T13:34:51;50.15;35.66;71.77;;
66399;Laerm;54877;51.504;3.894;2023-03-01T13:37:23;56.95;38.11;73.25;;
66399;Laerm;54877;51.504;3.894;2023-03-01T13:39:51;55.72;34.84;71.87;;
66399;Laerm;54877;51.504;3.894;2023-03-01T13:42:32;56.00;35.50;72.36;;
66399;Laerm;54877;51.504;3.894;2023-03-01T13:44:59;49.59;36.65;64.92;;
66399;Laerm;54877;51.504;3.894;2023-03-01T13:47:27;54.26;35.75;74.51;;
66399;Laerm;54877;51.504;3.894;2023-03-01T13:49:58;45.91;34.52;69.62;;
66399;Laerm;54877;51.504;3.894;2023-03-01T13:52:43;47.31;34.42;70.93;;
66399;Laerm;54877;51.504;3.894;2023-03-01T13:57:44;47.29;35.30;66.92;;
66399;Laerm;54877;51.504;3.894;2023-03-01T14:00:30;48.30;33.51;73.31;;
66399;Laerm;54877;51.504;3.894;2023-03-01T14:03:15;44.59;33.93;64.04;;
66399;Laerm;54877;51.504;3.894;2023-03-01T14:05:43;43.57;34.62;64.55;;
66399;Laerm;54877;51.504;3.894;2023-03-01T14:08:21;43.54;33.21;70.00;;
66399;Laerm;54877;51.504;3.894;2023-03-01T14:11:05;51.20;33.98;71.34;;
66399;Laerm;54877;51.504;3.894;2023-03-01T14:16:44;41.56;32.59;62.47;;
66399;Laerm;54877;51.504;3.894;2023-03-01T14:21:45;45.56;33.96;68.52;;
66399;Laerm;54877;51.504;3.894;2023-03-01T14:24:17;47.14;34.46;72.61;;
66399;Laerm;54877;51.504;3.894;2023-03-01T14:26:42;47.15;34.79;65.65;;
66399;Laerm;54877;51.504;3.894;2023-03-01T14:31:51;46.54;34.95;71.92;;
66399;Laerm;54877;51.504;3.894;2023-03-01T14:34:23;53.07;34.58;71.90;;
66399;Laerm;54877;51.504;3.894;2023-03-01T14:36:49;45.83;34.92;64.79;;
66399;Laerm;54877;51.504;3.894;2023-03-01T14:39:20;50.19;33.31;70.56;;
66399;Laerm;54877;51.504;3.894;2023-03-01T14:41:49;46.00;32.92;68.27;;
66399;Laerm;54877;51.504;3.894;2023-03-01T14:44:20;45.29;33.26;65.06;;
66399;Laerm;54877;51.504;3.894;2023-03-01T14:46:52;46.72;33.71;73.85;;
66399;Laerm;54877;51.504;3.894;2023-03-01T14:49:27;46.14;33.55;71.44;;
66399;Laerm;54877;51.504;3.894;2023-03-01T14:52:02;47.89;34.52;71.06;;
66399;Laerm;54877;51.504;3.894;2023-03-01T14:57:16;52.76;34.86;71.66;;
66399;Laerm;54877;51.504;3.894;2023-03-01T14:59:43;44.10;35.18;63.03;;
66399;Laerm;54877;51.504;3.894;2023-03-01T15:02:15;52.97;35.76;69.54;;
66399;Laerm;54877;51.504;3.894;2023-03-01T15:04:43;57.00;34.24;80.26;;
66399;Laerm;54877;51.504;3.894;2023-03-01T15:07:12;44.96;33.35;64.64;;
66399;Laerm;54877;51.504;3.894;2023-03-01T15:09:39;56.87;34.16;75.02;;
66399;Laerm;54877;51.504;3.894;2023-03-01T15:14:52;51.64;34.07;68.80;;
66399;Laerm;54877;51.504;3.894;2023-03-01T15:17:30;52.06;33.51;73.23;;
66399;Laerm;54877;51.504;3.894;2023-03-01T15:19:56;42.61;32.47;66.93;;
66399;Laerm;54877;51.504;3.894;2023-03-01T15:22:23;55.56;33.41;71.69;;
66399;Laerm;54877;51.504;3.894;2023-03-01T15:24:50;44.36;33.69;63.55;;
66399;Laerm;54877;51.504;3.894;2023-03-01T15:27:18;57.39;34.14;73.58;;
66399;Laerm;54877;51.504;3.894;2023-03-01T15:30:03;54.90;33.61;74.04;;
66399;Laerm;54877;51.504;3.894;2023-03-01T15:32:34;44.77;33.48;71.88;;
66399;Laerm;54877;51.504;3.894;2023-03-01T15:35:41;56.09;33.39;75.63;;
66399;Laerm;54877;51.504;3.894;2023-03-01T15:38:30;45.76;34.59;64.78;;
66399;Laerm;54877;51.504;3.894;2023-03-01T15:40:58;54.40;33.51;72.71;;
66399;Laerm;54877;51.504;3.894;2023-03-01T15:43:39;59.01;33.41;80.72;;
66399;Laerm;54877;51.504;3.894;2023-03-01T15:46:05;57.52;32.38;76.00;;
66399;Laerm;54877;51.504;3.894;2023-03-01T15:48:38;61.02;33.22;82.62;;
66399;Laerm;54877;51.504;3.894;2023-03-01T15:51:03;51.96;33.56;81.13;;